Aeroporto :
LOGIN :

Iscrizione | Disclaimer

   EN    FR    IT 

 










Sommario :    VFR   VFR Marginale   IFR   IFR Intensivo   IFR Molto Intensivo
Visibilità : 
Base nubi : 
>= 8 km
>= 3000ft
5 / 8 km
1000 / 3000 ft
1500m / 5 km
500 / 1000 ft
800 / 1500m
200 / 500 ft
< 800m
< 200 ft
Simboli :   Temporali  Nebbia  Neve Forte  Precipitazioni Forti  Vento > 20 kt
SIGMETs :   Varie  Temporali  Ghiacco  Turbolenza  Onda orograficha  Ceneri Vulcaniche







- Altitudine del aeroporto : 529 ft
- Codice IATA : CHR
- Carte del aeroporto


LFLX - Chateauroux

ULTIMO METAR :
  • 200200Z AUTO 23004KT 9999 BKN042 14/13 Q1021 TEMPO 3000 BR BKN003

METARs OBSOLETI :
  • 200130Z AUTO 23003KT 9999 FEW042 15/12 Q1021 TEMPO 3000 BR BKN003
  • 200100Z AUTO 24004KT CAVOK 15/12 Q1021 NOSIG
  • 200030Z AUTO 23004KT CAVOK 15/12 Q1021 NOSIG
  • 200000Z AUTO 24004KT CAVOK 16/13 Q1021 NOSIG
  • 192330Z AUTO 23005KT CAVOK 15/12 Q1021 NOSIG

TAF TAF LFLX
Valido dal 20 a 00 ore il 21 a 06 ore UTC


192300Z 2000/2106 26006KT CAVOK
PROB40
TEMPO 2003/2008 3000 BR BKN003
TEMPO 2103/2106 23015G25KT BKN012
Nessun NOTAM noto per questo aeroporto.



MetMap, La meteo Aeronautica in un colpo d'occhio ! - Copyright ORBIFLY Dicembre 2007 - Disclaimer

ORBIFLY MET'MAP TEAM :

Programmazione e sviluppo : Alexandra Zaïnal
Concezione e sviluppo : Baudouin d'Aumeries
Co-Programmazione e sviluppo : Marc-Olivier Méhu
Supporto tecnico e logistico : Manuel Goepfert
Aiuto per la traduzione : Arnaldo La Scala

Contatto : metmap@orbifly.com




FONTI E CREDITI :

   NOAA